Time;durP1;ratioP1;P1;durP2;ratioP2;P2;SDS_P1;SDS_P2;PMS_P1;PMS_P2;Temp;Humidity;BMP_temperature;BMP_pressure;BME280_temperature;BME280_humidity;BME280_pressure;Samples;Min_cycle;Max_cycle;Signal;HPM_P1;HPM_P2
2021/08/09 00:01:44;;;;;;;0.70;0.20;;;;;;;19.46;60.90;100970.97;5033762;28;20048;-66
2021/08/09 00:04:12;;;;;;;0.75;0.30;;;;;;;19.49;60.33;100973.38;5033789;28;20017;-65
2021/08/09 00:06:38;;;;;;;0.60;0.30;;;;;;;19.53;60.24;100972.00;5033841;28;20025;-64
2021/08/09 00:09:05;;;;;;;0.57;0.30;;;;;;;19.53;60.52;100982.91;5033806;28;20407;-65
2021/08/09 00:11:31;;;;;;;0.98;0.30;;;;;;;19.54;60.62;100989.25;5033860;28;20025;-66
2021/08/09 00:13:57;;;;;;;1.48;0.50;;;;;;;19.47;60.13;100989.03;5033660;28;20029;-67
2021/08/09 00:16:22;;;;;;;1.92;0.52;;;;;;;19.48;60.55;100990.78;5033197;28;20120;-67
2021/08/09 00:18:48;;;;;;;1.50;0.45;;;;;;;19.44;61.28;100989.41;5032861;28;20021;-67
2021/08/09 00:21:15;;;;;;;0.68;0.20;;;;;;;19.43;60.38;100986.84;5033758;28;20156;-66
2021/08/09 00:23:42;;;;;;;1.27;0.40;;;;;;;19.47;60.67;100991.75;5033552;28;20021;-67
2021/08/09 00:26:08;;;;;;;2.67;0.57;;;;;;;19.46;60.79;100992.78;5033568;28;20021;-64
2021/08/09 00:28:33;;;;;;;1.73;0.40;;;;;;;19.46;60.39;100990.06;5033154;28;20033;-64
2021/08/09 00:30:58;;;;;;;1.08;0.30;;;;;;;19.40;60.34;100990.78;5033680;28;20452;-65
2021/08/09 00:33:26;;;;;;;0.75;0.25;;;;;;;19.47;60.48;100989.03;5033567;28;20403;-66
2021/08/09 00:35:52;;;;;;;0.85;0.35;;;;;;;19.49;60.75;100997.94;5033400;28;20017;-65
2021/08/09 00:38:19;;;;;;;1.10;0.45;;;;;;;19.47;61.60;100989.03;5033333;28;20025;-67
2021/08/09 00:40:46;;;;;;;1.42;0.30;;;;;;;19.45;60.08;100991.09;5033554;28;20024;-66
2021/08/09 00:43:12;;;;;;;0.50;0.30;;;;;;;19.42;61.34;100996.91;5033294;28;20024;-66
2021/08/09 00:45:37;;;;;;;2.35;0.47;;;;;;;19.40;60.86;100998.97;5033163;28;20021;-67
2021/08/09 00:48:03;;;;;;;2.92;0.60;;;;;;;19.43;60.93;101000.47;5033223;28;20069;-66
2021/08/09 00:50:30;;;;;;;0.93;0.30;;;;;;;19.47;58.39;101005.41;5033276;28;20487;-65
2021/08/09 00:52:56;;;;;;;1.30;0.60;;;;;;;19.44;61.08;101002.19;5033369;28;20119;-65
2021/08/09 00:55:23;;;;;;;1.52;0.30;;;;;;;19.43;60.89;101008.66;5033279;28;20092;-66
2021/08/09 00:57:49;;;;;;;0.93;0.20;;;;;;;19.41;61.19;101011.56;5033315;28;20034;-67
2021/08/09 01:00:15;;;;;;;4.25;1.20;;;;;;;19.42;60.25;101007.81;5033209;28;20025;-67
2021/08/09 01:02:40;;;;;;;0.77;0.20;;;;;;;19.43;61.54;101008.66;5032967;28;20045;-67
2021/08/09 01:05:09;;;;;;;2.13;0.55;;;;;;;19.47;61.81;101012.72;5033151;28;20025;-68
2021/08/09 01:08:04;;;;;;;3.05;0.35;;;;;;;19.49;59.98;101011.56;5033103;28;20071;-65
2021/08/09 01:11:14;;;;;;;2.45;0.82;;;;;;;19.45;59.95;101007.47;5011234;28;20045;-65
2021/08/09 01:13:50;;;;;;;0.77;0.30;;;;;;;19.45;61.20;101017.50;4928594;29;20043;-66
2021/08/09 01:16:20;;;;;;;1.23;0.65;;;;;;;19.39;60.83;101012.75;4933441;29;20061;-66
2021/08/09 01:18:47;;;;;;;3.65;0.50;;;;;;;19.45;60.62;101012.91;4933786;29;20107;-64
2021/08/09 01:21:17;;;;;;;0.50;0.45;;;;;;;19.39;59.93;101005.44;4933709;29;20352;-64
2021/08/09 01:24:05;;;;;;;1.80;0.40;;;;;;;19.40;60.61;101009.88;4933576;29;20083;-65
2021/08/09 01:26:40;;;;;;;1.13;0.30;;;;;;;19.40;60.21;101009.00;4933646;29;20035;-67
2021/08/09 01:29:08;;;;;;;0.80;0.35;;;;;;;19.38;60.72;101014.66;4933765;29;20036;-66
2021/08/09 01:31:46;;;;;;;2.72;0.60;;;;;;;19.38;60.53;101016.53;4937448;29;20060;-67
2021/08/09 01:34:15;;;;;;;2.00;0.55;;;;;;;19.36;60.22;101010.41;4937172;29;20530;-63
2021/08/09 01:36:45;;;;;;;0.43;0.30;;;;;;;19.37;60.63;101020.28;4937080;29;20503;-65
2021/08/09 01:39:14;;;;;;;0.98;0.35;;;;;;;19.41;59.97;101014.28;4937159;29;20079;-65
2021/08/09 01:41:42;;;;;;;0.73;0.20;;;;;;;19.43;60.01;101014.97;4936903;29;20221;-67
2021/08/09 01:44:11;;;;;;;1.42;0.40;;;;;;;19.41;61.19;101010.72;4936877;29;20118;-67
2021/08/09 01:46:37;;;;;;;1.25;0.47;;;;;;;19.39;60.36;101021.78;4936870;29;20046;-67
2021/08/09 01:49:05;;;;;;;0.88;0.40;;;;;;;19.36;60.87;101019.41;4936824;29;20028;-66
2021/08/09 01:51:33;;;;;;;0.57;0.20;;;;;;;19.41;59.90;101024.34;5033305;28;20046;-65
2021/08/09 01:54:00;;;;;;;1.27;0.65;;;;;;;19.39;61.96;101021.78;5036019;28;20388;-64
2021/08/09 01:56:26;;;;;;;0.85;0.50;;;;;;;19.35;60.84;101015.00;5036413;28;20022;-65
2021/08/09 01:58:51;;;;;;;1.85;0.43;;;;;;;19.42;60.60;101013.25;5036180;28;20022;-66
2021/08/09 02:01:18;;;;;;;1.40;0.40;;;;;;;19.37;60.11;101012.09;5035854;28;20080;-66
2021/08/09 02:03:44;;;;;;;0.98;0.40;;;;;;;19.35;60.62;101023.19;5036015;28;20329;-66
2021/08/09 02:06:10;;;;;;;1.23;0.45;;;;;;;19.40;60.57;101014.47;5035907;28;20052;-66
2021/08/09 02:08:36;;;;;;;1.85;0.30;;;;;;;19.41;59.46;101011.56;5036146;28;20030;-66
2021/08/09 02:11:16;;;;;;;1.25;0.30;;;;;;;19.37;60.43;101023.84;5036000;28;20527;-65
2021/08/09 02:13:49;;;;;;;1.60;0.30;;;;;;;19.37;60.59;101026.56;5035770;28;20071;-65
2021/08/09 02:16:20;;;;;;;3.00;0.60;;;;;;;19.37;60.45;101026.56;5035625;28;20040;-66
2021/08/09 02:18:51;;;;;;;1.50;0.40;;;;;;;19.38;59.67;101028.28;5035889;28;20051;-66
2021/08/09 02:21:22;;;;;;;0.40;0.30;;;;;;;19.42;59.81;101035.06;5035576;28;20063;-66
2021/08/09 02:23:53;;;;;;;2.05;0.30;;;;;;;19.40;60.80;101036.28;5035721;28;20075;-66
2021/08/09 02:26:35;;;;;;;1.65;0.40;;;;;;;19.37;60.46;101032.03;5035548;28;20057;-65
2021/08/09 02:29:06;;;;;;;1.00;0.40;;;;;;;19.36;59.69;101024.88;5035549;28;20026;-64
2021/08/09 02:31:36;;;;;;;0.52;0.30;;;;;;;19.35;60.56;101033.22;5035290;28;20491;-67
2021/08/09 02:34:02;;;;;;;0.95;0.30;;;;;;;19.36;60.72;101035.78;5035465;28;20028;-65
2021/08/09 02:36:28;;;;;;;1.48;0.60;;;;;;;19.36;59.20;101040.38;5035166;28;20056;-66
2021/08/09 02:38:56;;;;;;;1.58;0.43;;;;;;;19.38;59.58;101032.88;5035359;28;20061;-66
2021/08/09 02:41:22;;;;;;;0.82;0.35;;;;;;;19.38;59.77;101039.19;5034295;28;20368;-65
2021/08/09 02:43:47;;;;;;;2.00;0.65;;;;;;;19.29;59.76;101034.75;5035101;28;20060;-64
2021/08/09 02:46:16;;;;;;;0.47;0.40;;;;;;;19.32;60.78;101036.31;5035149;28;20033;-64
2021/08/09 02:48:42;;;;;;;2.30;0.50;;;;;;;19.32;60.78;101028.13;5035130;28;20021;-65
2021/08/09 02:51:10;;;;;;;3.13;0.60;;;;;;;19.32;60.29;101025.41;5035344;28;20028;-66
2021/08/09 02:53:39;;;;;;;0.52;0.30;;;;;;;19.31;60.31;100961.81;5035106;28;20025;-66
2021/08/09 02:56:05;;;;;;;0.98;0.40;;;;;;;19.27;60.35;100971.38;5035164;28;20128;-67
2021/08/09 02:58:31;;;;;;;0.40;0.30;;;;;;;19.31;60.30;100961.81;5035101;28;20025;-66
2021/08/09 03:00:57;;;;;;;0.38;0.28;;;;;;;19.33;61.27;101063.41;5034758;28;20041;-67
2021/08/09 03:03:27;;;;;;;1.77;0.40;;;;;;;19.30;60.96;101036.44;5034975;28;20034;-65
2021/08/09 03:05:54;;;;;;;1.20;0.30;;;;;;;19.29;60.87;101034.75;5035200;28;20120;-65
2021/08/09 03:08:21;;;;;;;1.63;0.50;;;;;;;19.29;59.86;101033.91;5034750;28;20040;-65
2021/08/09 03:10:47;;;;;;;0.45;0.43;;;;;;;19.29;60.96;101040.19;5034850;28;20029;-66
2021/08/09 03:13:12;;;;;;;0.70;0.30;;;;;;;19.25;60.55;101049.75;5034639;28;20030;-65
2021/08/09 03:15:38;;;;;;;1.77;0.40;;;;;;;19.19;59.73;101053.19;5034560;28;20369;-67
2021/08/09 03:18:04;;;;;;;1.45;0.20;;;;;;;19.30;59.76;101058.25;5034654;28;20071;-66
2021/08/09 03:20:30;;;;;;;0.80;0.50;;;;;;;19.28;59.34;101060.31;5034601;28;20025;-66
2021/08/09 03:22:55;;;;;;;0.65;0.30;;;;;;;19.30;59.34;101036.44;5033371;28;20029;-64
2021/08/09 03:25:22;;;;;;;0.98;0.20;;;;;;;19.24;60.22;101031.69;5032324;28;20136;-65
2021/08/09 03:27:48;;;;;;;1.60;0.82;;;;;;;19.15;60.27;101027.31;5034391;28;20025;-65
2021/08/09 03:30:14;;;;;;;1.23;0.20;;;;;;;19.18;60.77;101021.50;5034304;28;20484;-65
2021/08/09 03:32:39;;;;;;;3.20;0.63;;;;;;;19.20;60.49;101019.44;5034455;28;20048;-66
2021/08/09 03:35:05;;;;;;;1.17;0.20;;;;;;;19.16;59.82;101023.56;5034421;28;20036;-67
2021/08/09 03:37:31;;;;;;;2.92;0.20;;;;;;;19.16;60.57;101012.66;5034140;28;20036;-67
2021/08/09 03:39:56;;;;;;;1.52;0.22;;;;;;;19.12;60.72;101014.84;5034224;28;20037;-66
2021/08/09 03:42:23;;;;;;;1.20;0.50;;;;;;;19.14;59.82;101025.56;5034025;28;20518;-67
2021/08/09 03:44:49;;;;;;;0.55;0.20;;;;;;;19.12;60.59;101024.91;5034321;28;20026;-65
2021/08/09 03:47:14;;;;;;;0.60;0.10;;;;;;;19.08;61.30;101029.84;5034052;28;20498;-65
2021/08/09 03:49:40;;;;;;;0.85;0.28;;;;;;;19.13;60.93;101023.88;5034140;28;20049;-65
2021/08/09 03:52:06;;;;;;;2.92;0.35;;;;;;;19.15;59.74;101021.84;5033995;28;20036;-66
2021/08/09 03:54:31;;;;;;;1.58;0.30;;;;;;;19.14;59.59;101022.84;5031589;28;20021;-66
2021/08/09 03:56:57;;;;;;;1.15;0.15;;;;;;;19.04;60.42;101024.91;5031865;28;20395;-68
2021/08/09 03:59:23;;;;;;;1.35;0.40;;;;;;;19.10;61.54;101021.50;5034135;28;20482;-67
2021/08/09 04:01:49;;;;;;;0.57;0.22;;;;;;;19.28;61.12;101037.66;5033231;28;20045;-69
2021/08/09 04:04:14;;;;;;;0.90;0.20;;;;;;;20.14;59.00;101002.25;5032533;28;20025;-66
2021/08/09 04:06:40;;;;;;;0.80;0.20;;;;;;;20.48;57.95;101022.91;5034172;28;20029;-68
2021/08/09 04:09:08;;;;;;;1.95;0.75;;;;;;;20.65;59.02;101022.59;5033722;28;20033;-66
2021/08/09 04:11:34;;;;;;;1.20;0.32;;;;;;;20.81;58.53;101042.63;5032592;28;20482;-65
2021/08/09 04:14:02;;;;;;;0.30;0.10;;;;;;;20.94;60.62;101064.75;5033759;28;20120;-65
2021/08/09 04:16:27;;;;;;;1.20;0.30;;;;;;;21.04;60.58;101070.81;5033629;28;20022;-66
2021/08/09 04:18:54;;;;;;;1.00;0.17;;;;;;;21.13;58.73;101042.34;5033835;28;20025;-66
2021/08/09 04:21:20;;;;;;;0.73;0.10;;;;;;;21.17;60.57;101034.66;5033653;28;20583;-67
2021/08/09 04:23:48;;;;;;;1.10;0.20;;;;;;;21.29;61.65;101030.47;5033637;28;20025;-67
2021/08/09 04:26:15;;;;;;;0.75;0.10;;;;;;;21.29;62.27;101035.91;5033496;28;20522;-66
2021/08/09 04:28:42;;;;;;;1.60;0.10;;;;;;;21.28;60.83;101034.22;5033647;28;20498;-67
2021/08/09 04:31:08;;;;;;;0.55;0.10;;;;;;;21.24;61.54;101033.75;5033646;28;20112;-66
2021/08/09 04:33:43;;;;;;;0.82;0.20;;;;;;;21.06;60.92;101029.63;5033510;28;20091;-65
2021/08/09 04:36:09;;;;;;;0.70;0.17;;;;;;;20.96;59.45;101027.13;5033703;28;20491;-66
2021/08/09 04:38:37;;;;;;;2.10;0.40;;;;;;;20.90;58.81;101036.09;5033568;28;20026;-65
2021/08/09 04:41:12;;;;;;;0.22;0.20;;;;;;;20.89;58.66;101028.94;5033577;28;20064;-67
2021/08/09 04:43:43;;;;;;;0.40;0.10;;;;;;;20.81;60.05;101053.56;5033475;28;20033;-66
2021/08/09 04:46:10;;;;;;;0.43;0.20;;;;;;;20.83;59.57;101046.91;5033471;28;20064;-67
2021/08/09 04:48:36;;;;;;;0.10;0.10;;;;;;;20.84;58.85;101048.59;5032078;28;20072;-67
2021/08/09 04:51:02;;;;;;;0.40;0.10;;;;;;;20.92;60.19;101055.88;5033438;28;20495;-67
2021/08/09 04:53:28;;;;;;;0.47;0.15;;;;;;;20.94;60.02;101060.13;5033368;28;20026;-68
2021/08/09 04:55:55;;;;;;;1.55;0.20;;;;;;;20.95;60.74;101055.50;5032990;28;20032;-66
2021/08/09 04:58:20;;;;;;;2.65;0.60;;;;;;;20.96;60.67;101063.53;5033418;28;20511;-66
2021/08/09 05:00:45;;;;;;;0.30;0.10;;;;;;;20.99;60.67;101065.03;5032835;28;20025;-67
2021/08/09 05:03:11;;;;;;;0.30;0.10;;;;;;;21.06;58.89;101063.28;5033232;28;20026;-66
2021/08/09 05:05:36;;;;;;;0.55;0.25;;;;;;;21.01;58.73;101057.53;5035626;28;20026;-67
2021/08/09 05:08:01;;;;;;;0.20;0.10;;;;;;;21.00;60.58;101047.63;5037287;28;20380;-66
2021/08/09 05:10:27;;;;;;;0.32;0.17;;;;;;;21.00;60.38;101058.56;5037042;28;20068;-67
2021/08/09 05:12:54;;;;;;;0.63;0.20;;;;;;;21.02;61.61;101062.81;5037158;28;20026;-67
2021/08/09 05:15:25;;;;;;;0.32;0.20;;;;;;;21.00;60.47;101066.75;5036872;28;20021;-66
2021/08/09 05:17:50;;;;;;;1.35;0.40;;;;;;;20.94;60.61;101071.06;5036925;28;20026;-65
2021/08/09 05:20:17;;;;;;;0.25;0.20;;;;;;;20.95;60.52;101066.44;5035297;28;20464;-65
2021/08/09 05:22:42;;;;;;;0.65;0.10;;;;;;;20.95;59.67;101071.91;5035352;28;20107;-65
2021/08/09 05:25:10;;;;;;;1.10;0.20;;;;;;;20.95;61.54;101063.72;5036360;28;20453;-67
2021/08/09 05:27:37;;;;;;;0.45;0.13;;;;;;;20.93;59.60;101057.56;5036838;28;20047;-66
2021/08/09 05:30:03;;;;;;;0.68;0.30;;;;;;;20.89;59.32;101057.09;5036790;28;20092;-66
2021/08/09 05:32:29;;;;;;;0.75;0.10;;;;;;;20.92;58.97;101061.34;5036628;28;20074;-67
2021/08/09 05:34:56;;;;;;;1.60;0.20;;;;;;;20.89;60.84;101061.72;5036464;28;20486;-67
2021/08/09 05:37:22;;;;;;;1.10;0.10;;;;;;;20.95;59.48;101052.78;5036617;28;20018;-67
2021/08/09 05:39:50;;;;;;;0.68;0.30;;;;;;;20.96;59.83;101051.75;5036592;28;20365;-67
2021/08/09 05:42:15;;;;;;;0.90;0.20;;;;;;;20.94;59.79;101048.34;5036608;28;20045;-67
2021/08/09 05:44:41;;;;;;;0.47;0.30;;;;;;;21.00;59.88;101047.63;5036241;28;20436;-67
2021/08/09 05:47:08;;;;;;;0.68;0.10;;;;;;;20.98;58.95;101046.94;5036464;28;20388;-65
2021/08/09 05:49:33;;;;;;;1.10;0.20;;;;;;;20.89;59.43;101046.16;5036538;28;20644;-66
2021/08/09 05:51:58;;;;;;;0.55;0.20;;;;;;;20.93;59.14;101050.22;5036541;28;20044;-66
2021/08/09 05:54:30;;;;;;;0.10;0.10;;;;;;;20.95;59.00;101055.50;5035237;28;20017;-66
2021/08/09 05:56:56;;;;;;;0.43;0.10;;;;;;;20.94;58.51;101056.53;5035081;28;20032;-67
2021/08/09 05:59:21;;;;;;;0.28;0.17;;;;;;;21.05;58.25;101055.28;5036278;28;20026;-66
2021/08/09 06:01:47;;;;;;;0.75;0.28;;;;;;;20.98;58.83;101061.44;5034819;28;20052;-60
2021/08/09 06:04:12;;;;;;;1.17;0.20;;;;;;;20.96;59.14;101057.19;5035739;28;20044;-60
2021/08/09 06:06:37;;;;;;;1.02;0.20;;;;;;;20.92;60.00;101055.88;5029551;28;20037;-60
2021/08/09 06:09:03;;;;;;;0.82;0.20;;;;;;;20.99;60.15;101062.31;5016234;28;20022;-60
2021/08/09 06:11:28;;;;;;;0.52;0.20;;;;;;;20.93;60.90;101041.19;5017849;28;20034;-60
2021/08/09 06:13:53;;;;;;;1.55;0.10;;;;;;;20.92;59.36;101072.28;5034672;28;20125;-59
2021/08/09 06:16:19;;;;;;;0.68;0.30;;;;;;;20.91;60.27;101067.84;5033508;28;20026;-60
2021/08/09 06:18:44;;;;;;;0.82;0.45;;;;;;;20.92;58.42;101072.28;5028888;28;20512;-60
2021/08/09 06:21:10;;;;;;;0.93;0.30;;;;;;;20.92;61.40;101072.28;5035078;28;20056;-59
2021/08/09 06:23:35;;;;;;;4.25;0.32;;;;;;;20.98;61.48;101074.25;5032485;28;20032;-61
2021/08/09 06:26:01;;;;;;;2.13;0.20;;;;;;;20.95;62.67;101082.84;5032566;28;20071;-59
2021/08/09 06:28:26;;;;;;;1.35;0.30;;;;;;;21.08;59.74;101083.09;5038663;28;20033;-60
2021/08/09 06:30:52;;;;;;;0.45;0.13;;;;;;;21.05;58.28;101080.72;5034831;28;20064;-60
2021/08/09 06:33:18;;;;;;;1.33;0.30;;;;;;;21.03;61.98;101082.78;5033782;28;20033;-59
2021/08/09 06:35:43;;;;;;;1.38;0.10;;;;;;;21.07;59.77;101083.28;5030404;28;20025;-61
2021/08/09 06:38:09;;;;;;;0.10;0.10;;;;;;;21.05;61.12;101091.66;5035028;28;20025;-60
2021/08/09 06:40:42;;;;;;;1.83;0.30;;;;;;;21.05;60.17;101093.53;5034817;28;20353;-59
2021/08/09 06:43:08;;;;;;;0.93;0.30;;;;;;;21.02;61.47;101100.22;5033779;28;20100;-59
2021/08/09 06:45:34;;;;;;;1.33;0.20;;;;;;;21.07;61.41;101086.84;5028099;28;20031;-59
2021/08/09 06:47:59;;;;;;;0.70;0.35;;;;;;;21.02;61.15;101100.22;5020834;28;20022;-59
2021/08/09 06:50:24;;;;;;;1.75;0.38;;;;;;;20.96;61.42;101106.41;5016735;28;20112;-59
2021/08/09 06:52:50;;;;;;;0.90;0.45;;;;;;;20.96;60.09;101095.47;5032369;28;20463;-59
2021/08/09 06:55:15;;;;;;;0.73;0.20;;;;;;;21.03;58.67;101101.94;5033691;28;20025;-59
2021/08/09 06:57:40;;;;;;;0.17;0.10;;;;;;;21.01;60.66;101101.25;5034665;28;20013;-59
2021/08/09 07:00:07;;;;;;;0.68;0.15;;;;;;;21.08;62.44;101106.84;5034540;28;20037;-59
2021/08/09 07:02:35;;;;;;;1.55;0.30;;;;;;;21.07;59.90;101105.97;5032654;28;20439;-59
2021/08/09 07:05:01;;;;;;;1.02;0.40;;;;;;;21.07;62.06;101111.44;5032464;28;20025;-59
2021/08/09 07:07:26;;;;;;;0.77;0.20;;;;;;;21.03;60.16;101112.84;5033541;28;20036;-59
2021/08/09 07:09:51;;;;;;;0.40;0.15;;;;;;;21.05;62.04;101110.78;5034244;28;20025;-59
2021/08/09 07:12:17;;;;;;;1.92;0.32;;;;;;;21.11;61.29;101114.66;5034602;28;20033;-59
2021/08/09 07:14:43;;;;;;;1.30;0.25;;;;;;;21.03;61.11;101112.84;5034165;28;20036;-59
2021/08/09 07:17:08;;;;;;;0.63;0.30;;;;;;;21.04;59.19;101120.03;5036225;28;20029;-59
2021/08/09 07:19:35;;;;;;;0.82;0.50;;;;;;;21.02;59.97;101122.09;5032710;28;20059;-59
2021/08/09 07:22:03;;;;;;;0.10;0.10;;;;;;;21.08;59.98;101131.44;5032205;28;20056;-59
2021/08/09 07:24:28;;;;;;;1.00;0.25;;;;;;;21.03;60.66;101137.47;5033105;28;20069;-59
2021/08/09 07:26:54;;;;;;;0.52;0.15;;;;;;;21.03;60.79;101129.25;5032828;28;20088;-59
2021/08/09 07:29:19;;;;;;;1.23;0.32;;;;;;;21.01;58.74;101131.31;5032331;28;20029;-59
2021/08/09 07:31:45;;;;;;;1.05;0.28;;;;;;;21.08;59.58;101126.81;5034083;28;20033;-59
2021/08/09 07:34:10;;;;;;;1.95;0.20;;;;;;;20.99;60.06;101133.38;5032888;28;20029;-59
2021/08/09 07:36:35;;;;;;;0.55;0.20;;;;;;;21.05;62.01;101138.13;5031347;28;20021;-58
2021/08/09 07:39:01;;;;;;;1.02;0.43;;;;;;;21.00;62.03;101138.69;5033942;28;20040;-58
2021/08/09 07:41:26;;;;;;;2.28;0.68;;;;;;;20.98;60.03;101139.88;5033841;28;20029;-58
2021/08/09 07:43:51;;;;;;;1.77;0.38;;;;;;;20.98;61.63;101142.59;5033864;28;20036;-58
2021/08/09 07:46:17;;;;;;;1.08;0.40;;;;;;;20.95;61.86;101148.44;5033172;28;20027;-59
2021/08/09 07:48:42;;;;;;;0.90;0.22;;;;;;;21.03;61.23;101137.47;5033632;28;20464;-59
2021/08/09 07:51:07;;;;;;;1.23;0.30;;;;;;;21.06;62.49;101142.56;5031590;28;20033;-59
2021/08/09 07:53:32;;;;;;;1.50;0.20;;;;;;;21.07;60.10;101138.78;5032320;28;20037;-59
2021/08/09 07:55:58;;;;;;;0.40;0.20;;;;;;;21.04;61.25;101144.63;5033240;28;20044;-59
2021/08/09 07:58:23;;;;;;;0.35;0.30;;;;;;;21.05;60.16;101149.06;5032241;28;20025;-60
2021/08/09 08:00:48;;;;;;;0.22;0.10;;;;;;;21.06;60.75;101149.91;5048740;23;20086;-59
2021/08/09 08:03:14;;;;;;;0.28;0.10;;;;;;;21.00;61.89;101149.63;5073458;28;20025;-59
2021/08/09 08:05:39;;;;;;;0.60;0.20;;;;;;;21.02;61.04;101150.28;5048909;28;20037;-59
2021/08/09 08:08:06;;;;;;;0.57;0.17;;;;;;;21.07;60.14;101149.72;5021321;28;20045;-59
2021/08/09 08:10:31;;;;;;;1.63;0.65;;;;;;;21.07;60.37;101149.72;5044223;28;20437;-59
2021/08/09 08:12:58;;;;;;;2.05;0.40;;;;;;;21.03;60.11;101151.13;5025315;28;20033;-59
2021/08/09 08:15:24;;;;;;;0.20;0.20;;;;;;;21.07;61.47;101152.44;5051177;28;20414;-59
2021/08/09 08:17:49;;;;;;;0.55;0.20;;;;;;;21.12;61.79;101150.00;5051563;28;20032;-59
2021/08/09 08:20:15;;;;;;;0.63;0.20;;;;;;;21.06;62.53;101149.91;5034747;28;20025;-59
2021/08/09 08:22:40;;;;;;;1.45;0.40;;;;;;;21.06;60.12;101145.28;5050640;28;20441;-60
2021/08/09 08:25:06;;;;;;;0.75;0.20;;;;;;;21.05;61.06;101143.59;5043593;28;20026;-59
2021/08/09 08:27:32;;;;;;;0.50;0.22;;;;;;;21.13;59.24;101137.19;5039537;28;20036;-59
2021/08/09 08:29:57;;;;;;;0.80;0.35;;;;;;;21.14;60.70;101142.47;5039811;28;20464;-59
2021/08/09 08:32:22;;;;;;;0.63;0.10;;;;;;;21.09;58.66;101142.19;5052663;28;20028;-59
2021/08/09 08:34:49;;;;;;;1.20;0.52;;;;;;;21.12;59.44;101141.81;5044712;28;20025;-59
2021/08/09 08:37:14;;;;;;;2.30;0.60;;;;;;;21.07;59.30;101144.25;5050110;28;20467;-59
2021/08/09 08:39:39;;;;;;;1.10;0.40;;;;;;;21.06;59.86;101142.56;5045502;28;20021;-59
2021/08/09 08:42:05;;;;;;;2.90;0.50;;;;;;;21.09;60.69;101127.66;5042544;28;20384;-58
2021/08/09 08:44:30;;;;;;;0.55;0.28;;;;;;;21.13;61.10;101134.47;5035456;28;20033;-59
2021/08/09 08:46:56;;;;;;;1.05;0.20;;;;;;;21.10;60.58;101124.75;5038507;28;20025;-59
2021/08/09 08:49:23;;;;;;;1.27;0.20;;;;;;;21.03;59.69;101134.72;5040282;28;20028;-59
2021/08/09 08:51:49;;;;;;;1.17;0.57;;;;;;;21.08;60.58;101142.38;5045550;28;20063;-59
2021/08/09 08:54:14;;;;;;;0.30;0.10;;;;;;;21.11;60.01;101148.31;5042014;28;20415;-59
2021/08/09 08:56:42;;;;;;;0.95;0.10;;;;;;;21.08;59.82;101148.69;5046035;28;20048;-60
2021/08/09 08:59:11;;;;;;;1.00;0.40;;;;;;;21.05;62.47;101148.22;5040617;28;20047;-60
2021/08/09 09:01:42;;;;;;;0.40;0.20;;;;;;;21.14;61.01;101147.09;5038222;28;20476;-60
2021/08/09 09:04:38;;;;;;;1.40;0.20;;;;;;;21.12;61.56;101150.00;5043017;28;20095;-59
2021/08/09 09:07:06;;;;;;;0.55;0.55;;;;;;;21.04;61.73;101141.88;4977514;28;20405;-59
2021/08/09 09:09:34;;;;;;;0.45;0.32;;;;;;;21.13;61.16;101145.41;4980844;28;20077;-59
2021/08/09 09:12:17;;;;;;;1.20;0.20;;;;;;;21.13;60.67;101146.25;4971969;28;20070;-59
2021/08/09 09:14:43;;;;;;;0.28;0.20;;;;;;;21.13;60.08;101146.25;4971994;28;20062;-60
2021/08/09 09:17:09;;;;;;;1.92;0.28;;;;;;;21.16;62.20;101156.81;4971749;28;20050;-59
2021/08/09 09:19:46;;;;;;;0.75;0.25;;;;;;;21.10;60.87;101154.81;4971852;28;20031;-59
2021/08/09 09:22:17;;;;;;;0.28;0.28;;;;;;;21.11;61.44;101155.66;4990281;28;20034;-60
2021/08/09 09:24:49;;;;;;;2.15;0.40;;;;;;;21.10;59.99;101154.81;4983248;28;20042;-59
2021/08/09 09:27:32;;;;;;;0.65;0.30;;;;;;;21.14;59.50;101153.41;4981446;28;20125;-59
2021/08/09 09:29:58;;;;;;;0.70;0.20;;;;;;;21.12;61.58;101154.63;4975735;28;20042;-59
2021/08/09 09:32:25;;;;;;;1.73;0.35;;;;;;;21.06;60.81;101153.50;4987815;28;20358;-59
2021/08/09 09:34:57;;;;;;;0.90;0.30;;;;;;;21.07;59.75;101152.44;4971854;28;20075;-60
2021/08/09 09:37:30;;;;;;;0.40;0.30;;;;;;;21.12;62.81;101155.50;4971508;28;20466;-59
2021/08/09 09:40:11;;;;;;;0.30;0.20;;;;;;;21.12;60.93;101150.00;4971860;28;20121;-59
2021/08/09 09:42:40;;;;;;;0.73;0.10;;;;;;;21.11;60.73;101153.78;4981055;28;20038;-59
2021/08/09 09:45:28;;;;;;;1.02;0.30;;;;;;;21.20;60.11;101136.31;5041790;28;20108;-59
2021/08/09 09:48:04;;;;;;;0.65;0.28;;;;;;;21.11;61.06;101142.84;5052094;28;20079;-59
2021/08/09 09:50:30;;;;;;;1.27;0.40;;;;;;;21.11;60.71;101142.84;5041954;28;20464;-59
2021/08/09 09:52:56;;;;;;;0.60;0.35;;;;;;;21.12;61.27;101139.09;5053695;28;20467;-59
2021/08/09 09:55:21;;;;;;;0.47;0.40;;;;;;;21.10;59.18;101141.16;5065608;28;20042;-59
2021/08/09 09:57:47;;;;;;;0.65;0.30;;;;;;;21.14;60.54;101150.69;5075637;28;20028;-59
2021/08/09 10:00:15;;;;;;;0.57;0.32;;;;;;;21.19;61.48;101147.41;5074615;28;20040;-59
2021/08/09 10:02:45;;;;;;;0.63;0.13;;;;;;;21.13;60.37;101154.44;5023180;28;20117;-59
2021/08/09 10:05:12;;;;;;;1.30;0.30;;;;;;;21.14;61.00;101147.94;5012232;28;20493;-59
2021/08/09 10:07:40;;;;;;;0.80;0.30;;;;;;;21.10;59.39;101154.81;5014330;28;20026;-59
2021/08/09 10:10:08;;;;;;;0.77;0.30;;;;;;;21.10;60.60;101149.34;5014470;28;20029;-59
2021/08/09 10:12:35;;;;;;;1.95;0.30;;;;;;;21.12;60.51;101151.91;5014669;28;20539;-59
2021/08/09 10:15:00;;;;;;;0.32;0.15;;;;;;;21.18;59.84;101153.94;5015119;28;20030;-59
2021/08/09 10:17:28;;;;;;;0.98;0.30;;;;;;;21.10;59.71;101156.69;5014674;28;20059;-59
2021/08/09 10:20:03;;;;;;;1.40;0.30;;;;;;;21.16;60.00;101161.44;5015810;28;20038;-59
2021/08/09 10:22:29;;;;;;;1.20;0.20;;;;;;;21.18;58.88;101165.72;5015631;28;20029;-59
2021/08/09 10:24:56;;;;;;;0.88;0.30;;;;;;;21.13;61.10;101159.91;5015731;28;20068;-59
2021/08/09 10:27:46;;;;;;;1.33;0.20;;;;;;;21.13;59.76;101168.13;5015601;28;20033;-59
2021/08/09 10:30:22;;;;;;;1.10;0.38;;;;;;;21.17;61.94;101158.53;5015402;28;20041;-59
2021/08/09 10:32:53;;;;;;;1.10;0.57;;;;;;;21.13;60.15;101159.06;4995862;28;20109;-59
2021/08/09 10:35:40;;;;;;;1.38;0.45;;;;;;;21.11;60.74;101153.78;5011176;28;20062;-59
2021/08/09 10:38:22;;;;;;;0.22;0.20;;;;;;;21.10;61.86;101152.09;5013201;28;20032;-59
2021/08/09 10:41:07;;;;;;;0.50;0.20;;;;;;;21.15;60.87;101155.13;5015155;28;20692;-60
2021/08/09 10:43:32;;;;;;;0.77;0.20;;;;;;;21.19;60.75;101153.75;5015287;28;20065;-59
2021/08/09 10:45:58;;;;;;;0.90;0.20;;;;;;;21.17;60.68;101153.06;5015427;28;20065;-59
2021/08/09 10:48:42;;;;;;;0.50;0.20;;;;;;;21.13;61.60;101148.97;5015232;28;20030;-59
2021/08/09 10:51:07;;;;;;;2.83;0.52;;;;;;;21.18;61.18;101154.78;5015029;28;20029;-59
2021/08/09 10:53:35;;;;;;;0.30;0.13;;;;;;;21.20;61.17;101158.19;5013839;28;20214;-59
2021/08/09 10:56:02;;;;;;;0.30;0.20;;;;;;;21.21;62.68;101159.88;5014791;28;20018;-59
2021/08/09 10:58:43;;;;;;;2.35;0.20;;;;;;;21.23;60.95;101155.06;5014737;28;20025;-59
2021/08/09 11:01:09;;;;;;;1.85;0.25;;;;;;;21.17;60.34;101164.00;5029232;28;20518;-59
2021/08/09 11:04:03;;;;;;;2.28;0.45;;;;;;;21.15;61.92;101170.66;5052167;28;20041;-60
2021/08/09 11:06:53;;;;;;;0.20;0.10;;;;;;;21.18;60.79;101165.72;5050481;28;20079;-62
2021/08/09 11:09:31;;;;;;;2.13;0.50;;;;;;;21.35;59.60;101160.16;5045576;28;20068;-61
2021/08/09 11:12:15;;;;;;;1.73;0.60;;;;;;;21.33;59.32;101157.56;5062063;28;20036;-61
2021/08/09 11:14:59;;;;;;;0.97;0.20;;;;;;;21.34;60.84;101169.38;5054216;28;20464;-60
2021/08/09 11:17:25;;;;;;;0.38;0.22;;;;;;;21.25;60.70;101166.69;5052844;28;20277;-61
2021/08/09 11:19:51;;;;;;;1.85;0.20;;;;;;;21.21;60.44;101170.81;5047377;28;20032;-60
2021/08/09 11:22:18;;;;;;;1.30;0.40;;;;;;;21.16;60.61;101180.56;5048753;28;20044;-60
2021/08/09 11:24:43;;;;;;;0.95;0.22;;;;;;;21.22;60.02;101183.44;5053632;28;20020;-61
2021/08/09 11:27:09;;;;;;;0.20;0.20;;;;;;;21.21;60.65;101180.91;5054112;28;20460;-60
2021/08/09 11:29:54;;;;;;;0.60;0.20;;;;;;;21.22;60.77;101183.44;5053933;28;20039;-61